sensor_id;sensor_type;location;lat;lon;timestamp;pressure;altitude;pressure_sealevel;temperature
67509;BMP280;54354;44.724;11.284;2023-02-18T00:00:09;102886.50;;;14.62
67509;BMP280;54354;44.724;11.284;2023-02-18T00:02:35;102901.00;;;14.57
67509;BMP280;54354;44.724;11.284;2023-02-18T00:05:01;102893.72;;;14.44
67509;BMP280;54354;44.724;11.284;2023-02-18T00:07:26;102886.84;;;14.36
67509;BMP280;54354;44.724;11.284;2023-02-18T00:09:52;102883.03;;;14.29
67509;BMP280;54354;44.724;11.284;2023-02-18T00:12:17;102891.34;;;14.21
67509;BMP280;54354;44.724;11.284;2023-02-18T00:14:43;102877.63;;;14.08
67509;BMP280;54354;44.724;11.284;2023-02-18T00:17:08;102890.19;;;14.04
67509;BMP280;54354;44.724;11.284;2023-02-18T00:19:34;102891.28;;;13.96
67509;BMP280;54354;44.724;11.284;2023-02-18T00:21:59;102892.03;;;13.93
67509;BMP280;54354;44.724;11.284;2023-02-18T00:24:25;102896.19;;;13.90
67509;BMP280;54354;44.724;11.284;2023-02-18T00:26:51;102886.69;;;13.89
67509;BMP280;54354;44.724;11.284;2023-02-18T00:29:17;102884.03;;;13.89
67509;BMP280;54354;44.724;11.284;2023-02-18T00:31:43;102882.53;;;13.92
67509;BMP280;54354;44.724;11.284;2023-02-18T00:34:10;102886.31;;;13.94
67509;BMP280;54354;44.724;11.284;2023-02-18T00:36:36;102888.97;;;13.94
67509;BMP280;54354;44.724;11.284;2023-02-18T00:39:08;102881.38;;;13.93
67509;BMP280;54354;44.724;11.284;2023-02-18T00:41:34;102884.03;;;13.96
67509;BMP280;54354;44.724;11.284;2023-02-18T00:44:00;102891.63;;;13.94
67509;BMP280;54354;44.724;11.284;2023-02-18T00:46:27;102879.47;;;13.97
67509;BMP280;54354;44.724;11.284;2023-02-18T00:48:53;102877.22;;;13.99
67509;BMP280;54354;44.724;11.284;2023-02-18T00:51:20;102879.09;;;13.95
67509;BMP280;54354;44.724;11.284;2023-02-18T00:53:47;102880.22;;;13.94
67509;BMP280;54354;44.724;11.284;2023-02-18T00:56:12;102886.72;;;13.93
67509;BMP280;54354;44.724;11.284;2023-02-18T00:58:40;102892.03;;;13.93
67509;BMP280;54354;44.724;11.284;2023-02-18T01:01:07;102888.19;;;13.94
67509;BMP280;54354;44.724;11.284;2023-02-18T01:03:33;102893.56;;;13.97
67509;BMP280;54354;44.724;11.284;2023-02-18T01:05:58;102887.84;;;13.95
67509;BMP280;54354;44.724;11.284;2023-02-18T01:08:24;102887.44;;;13.93
67509;BMP280;54354;44.724;11.284;2023-02-18T01:10:53;102884.38;;;13.84
67509;BMP280;54354;44.724;11.284;2023-02-18T01:13:19;102878.28;;;13.87
67509;BMP280;54354;44.724;11.284;2023-02-18T01:15:45;102890.81;;;13.79
67509;BMP280;54354;44.724;11.284;2023-02-18T01:18:11;102884.69;;;13.75
67509;BMP280;54354;44.724;11.284;2023-02-18T01:20:39;102894.59;;;13.68
67509;BMP280;54354;44.724;11.284;2023-02-18T01:23:06;102891.13;;;13.67
67509;BMP280;54354;44.724;11.284;2023-02-18T01:25:32;102885.00;;;13.63
67509;BMP280;54354;44.724;11.284;2023-02-18T01:27:59;102886.53;;;13.64
67509;BMP280;54354;44.724;11.284;2023-02-18T01:30:25;102881.22;;;13.61
67509;BMP280;54354;44.724;11.284;2023-02-18T01:32:50;102884.25;;;13.59
67509;BMP280;54354;44.724;11.284;2023-02-18T01:35:18;102869.34;;;13.51
67509;BMP280;54354;44.724;11.284;2023-02-18T01:37:44;102868.59;;;13.47
67509;BMP280;54354;44.724;11.284;2023-02-18T01:40:12;102871.19;;;13.40
67509;BMP280;54354;44.724;11.284;2023-02-18T01:42:38;102870.84;;;13.41
67509;BMP280;54354;44.724;11.284;2023-02-18T01:47:59;102856.81;;;13.48
67509;BMP280;54354;44.724;11.284;2023-02-18T01:50:26;102850.34;;;13.52
67509;BMP280;54354;44.724;11.284;2023-02-18T01:52:51;102843.53;;;13.59
67509;BMP280;54354;44.724;11.284;2023-02-18T01:55:17;102843.16;;;13.57
67509;BMP280;54354;44.724;11.284;2023-02-18T01:57:43;102848.47;;;13.53
67509;BMP280;54354;44.724;11.284;2023-02-18T02:00:13;102842.66;;;13.40
67509;BMP280;54354;44.724;11.284;2023-02-18T02:02:46;102846.50;;;13.46
67509;BMP280;54354;44.724;11.284;2023-02-18T02:05:12;102839.31;;;13.47
67509;BMP280;54354;44.724;11.284;2023-02-18T02:07:40;102825.19;;;13.43
67509;BMP280;54354;44.724;11.284;2023-02-18T02:10:06;102825.94;;;13.43
67509;BMP280;54354;44.724;11.284;2023-02-18T02:34:39;102804.97;;;13.31
67509;BMP280;54354;44.724;11.284;2023-02-18T02:45:28;102796.94;;;13.24
67509;BMP280;54354;44.724;11.284;2023-02-18T02:50:49;102790.06;;;13.23
67509;BMP280;54354;44.724;11.284;2023-02-18T02:53:20;102794.63;;;13.19
67509;BMP280;54354;44.724;11.284;2023-02-18T02:55:47;102795.03;;;13.21
67509;BMP280;54354;44.724;11.284;2023-02-18T02:58:18;102794.97;;;13.14
67509;BMP280;54354;44.724;11.284;2023-02-18T03:04:19;102794.59;;;13.08
67509;BMP280;54354;44.724;11.284;2023-02-18T03:12:39;102793.66;;;12.86
67509;BMP280;54354;44.724;11.284;2023-02-18T03:18:16;102789.06;;;12.83
67509;BMP280;54354;44.724;11.284;2023-02-18T03:20:52;102788.28;;;12.79
67509;BMP280;54354;44.724;11.284;2023-02-18T03:23:24;102780.66;;;12.78
67509;BMP280;54354;44.724;11.284;2023-02-18T03:25:52;102788.28;;;12.79
67509;BMP280;54354;44.724;11.284;2023-02-18T03:28:20;102789.75;;;12.73
67509;BMP280;54354;44.724;11.284;2023-02-18T03:30:52;102789.34;;;12.67
67509;BMP280;54354;44.724;11.284;2023-02-18T03:33:23;102775.28;;;12.67
67509;BMP280;54354;44.724;11.284;2023-02-18T03:35:53;102783.63;;;12.69
67509;BMP280;54354;44.724;11.284;2023-02-18T03:38:23;102777.56;;;12.68
67509;BMP280;54354;44.724;11.284;2023-02-18T03:40:50;102780.56;;;13.18
67509;BMP280;54354;44.724;11.284;2023-02-18T03:43:15;102788.75;;;12.88
67509;BMP280;54354;44.724;11.284;2023-02-18T03:45:41;102784.88;;;12.79
67509;BMP280;54354;44.724;11.284;2023-02-18T03:48:08;102789.06;;;12.83
67509;BMP280;54354;44.724;11.284;2023-02-18T03:50:33;102794.06;;;12.88
67509;BMP280;54354;44.724;11.284;2023-02-18T03:52:59;102796.31;;;12.90
67509;BMP280;54354;44.724;11.284;2023-02-18T03:55:25;102797.13;;;12.94
67509;BMP280;54354;44.724;11.284;2023-02-18T03:57:51;102800.56;;;12.94
67509;BMP280;54354;44.724;11.284;2023-02-18T04:00:16;102800.16;;;12.96
67509;BMP280;54354;44.724;11.284;2023-02-18T04:02:42;102804.38;;;12.97
67509;BMP280;54354;44.724;11.284;2023-02-18T04:05:08;102797.16;;;12.97
67509;BMP280;54354;44.724;11.284;2023-02-18T04:07:34;102791.00;;;12.90
67509;BMP280;54354;44.724;11.284;2023-02-18T04:09:59;102801.63;;;12.86
67509;BMP280;54354;44.724;11.284;2023-02-18T04:12:25;102798.19;;;12.82
67509;BMP280;54354;44.724;11.284;2023-02-18T04:14:50;102801.59;;;12.79
67509;BMP280;54354;44.724;11.284;2023-02-18T04:17:17;102805.72;;;12.77
67509;BMP280;54354;44.724;11.284;2023-02-18T04:19:43;102802.59;;;12.64
67509;BMP280;54354;44.724;11.284;2023-02-18T04:22:09;102812.34;;;12.53
67509;BMP280;54354;44.724;11.284;2023-02-18T04:24:34;102818.31;;;12.42
67509;BMP280;54354;44.724;11.284;2023-02-18T04:27:00;102817.47;;;12.35
67509;BMP280;54354;44.724;11.284;2023-02-18T04:29:25;102822.72;;;12.28
67509;BMP280;54354;44.724;11.284;2023-02-18T04:31:51;102819.97;;;12.20
67509;BMP280;54354;44.724;11.284;2023-02-18T04:34:16;102818.34;;;12.12
67509;BMP280;54354;44.724;11.284;2023-02-18T04:36:42;102825.13;;;12.06
67509;BMP280;54354;44.724;11.284;2023-02-18T04:39:07;102828.44;;;11.96
67509;BMP280;54354;44.724;11.284;2023-02-18T04:41:33;102829.16;;;11.93
67509;BMP280;54354;44.724;11.284;2023-02-18T04:43:58;102834.78;;;11.88
67509;BMP280;54354;44.724;11.284;2023-02-18T04:46:24;102836.25;;;11.85
67509;BMP280;54354;44.724;11.284;2023-02-18T04:48:50;102841.53;;;11.82
67509;BMP280;54354;44.724;11.284;2023-02-18T04:51:15;102833.13;;;11.80
67509;BMP280;54354;44.724;11.284;2023-02-18T04:53:41;102837.34;;;11.81
67509;BMP280;54354;44.724;11.284;2023-02-18T04:56:07;102831.66;;;11.82
67509;BMP280;54354;44.724;11.284;2023-02-18T04:58:32;102835.47;;;11.85
67509;BMP280;54354;44.724;11.284;2023-02-18T05:01:02;102824.53;;;11.86
67509;BMP280;54354;44.724;11.284;2023-02-18T05:03:28;102823.84;;;11.93
67509;BMP280;54354;44.724;11.284;2023-02-18T05:05:54;102838.13;;;11.85
67509;BMP280;54354;44.724;11.284;2023-02-18T05:08:20;102833.50;;;11.78
67509;BMP280;54354;44.724;11.284;2023-02-18T05:10:45;102831.16;;;11.73
67509;BMP280;54354;44.724;11.284;2023-02-18T05:13:11;102830.34;;;11.69
67509;BMP280;54354;44.724;11.284;2023-02-18T05:15:36;102824.66;;;11.67
67509;BMP280;54354;44.724;11.284;2023-02-18T05:18:02;102816.25;;;11.65
67509;BMP280;54354;44.724;11.284;2023-02-18T05:20:28;102815.88;;;11.63
67509;BMP280;54354;44.724;11.284;2023-02-18T05:22:53;102820.81;;;11.64
67509;BMP280;54354;44.724;11.284;2023-02-18T05:25:19;102826.88;;;11.65
67509;BMP280;54354;44.724;11.284;2023-02-18T05:27:44;102826.53;;;11.66
67509;BMP280;54354;44.724;11.284;2023-02-18T05:30:10;102824.59;;;11.63
67509;BMP280;54354;44.724;11.284;2023-02-18T05:32:36;102826.06;;;11.61
67509;BMP280;54354;44.724;11.284;2023-02-18T05:35:01;102831.38;;;11.61
67509;BMP280;54354;44.724;11.284;2023-02-18T05:37:27;102840.84;;;11.62
67509;BMP280;54354;44.724;11.284;2023-02-18T05:39:52;102839.31;;;11.61
67509;BMP280;54354;44.724;11.284;2023-02-18T05:42:18;102832.47;;;11.56
67509;BMP280;54354;44.724;11.284;2023-02-18T05:44:43;102839.63;;;11.56
67509;BMP280;54354;44.724;11.284;2023-02-18T05:47:11;102825.22;;;11.53
67509;BMP280;54354;44.724;11.284;2023-02-18T05:49:38;102829.38;;;11.54
67509;BMP280;54354;44.724;11.284;2023-02-18T05:52:04;102839.63;;;11.56
67509;BMP280;54354;44.724;11.284;2023-02-18T05:54:30;102839.63;;;11.56
67509;BMP280;54354;44.724;11.284;2023-02-18T05:56:56;102841.88;;;11.54
67509;BMP280;54354;44.724;11.284;2023-02-18T05:59:22;102827.75;;;11.46
67509;BMP280;54354;44.724;11.284;2023-02-18T06:01:47;102838.34;;;11.46
67509;BMP280;54354;44.724;11.284;2023-02-18T06:04:13;102831.16;;;11.47
67509;BMP280;54354;44.724;11.284;2023-02-18T06:06:39;102832.00;;;11.51
67509;BMP280;54354;44.724;11.284;2023-02-18T06:09:05;102830.44;;;11.50
67509;BMP280;54354;44.724;11.284;2023-02-18T06:11:31;102834.66;;;11.51
67509;BMP280;54354;44.724;11.284;2023-02-18T06:13:57;102835.75;;;11.50
67509;BMP280;54354;44.724;11.284;2023-02-18T06:16:23;102841.88;;;11.54
67509;BMP280;54354;44.724;11.284;2023-02-18T06:18:48;102849.84;;;11.54
67509;BMP280;54354;44.724;11.284;2023-02-18T06:21:14;102845.31;;;11.54
67509;BMP280;54354;44.724;11.284;2023-02-18T06:23:39;102840.00;;;11.54
67509;BMP280;54354;44.724;11.284;2023-02-18T06:26:05;102842.66;;;11.54
67509;BMP280;54354;44.724;11.284;2023-02-18T06:28:31;102839.97;;;11.51
67509;BMP280;54354;44.724;11.284;2023-02-18T06:30:56;102845.22;;;11.47
67509;BMP280;54354;44.724;11.284;2023-02-18T06:33:22;102843.31;;;11.48
67509;BMP280;54354;44.724;11.284;2023-02-18T06:35:53;102838.75;;;11.45
67509;BMP280;54354;44.724;11.284;2023-02-18T06:38:19;102838.41;;;11.50
67509;BMP280;54354;44.724;11.284;2023-02-18T06:40:46;102833.03;;;11.46
67509;BMP280;54354;44.724;11.284;2023-02-18T06:43:12;102837.66;;;11.49
67509;BMP280;54354;44.724;11.284;2023-02-18T06:45:38;102838.00;;;11.48
67509;BMP280;54354;44.724;11.284;2023-02-18T06:48:04;102843.31;;;11.48
67509;BMP280;54354;44.724;11.284;2023-02-18T06:50:29;102846.06;;;11.55
67509;BMP280;54354;44.724;11.284;2023-02-18T06:52:55;102847.72;;;11.63
67509;BMP280;54354;44.724;11.284;2023-02-18T06:55:20;102856.44;;;11.63
67509;BMP280;54354;44.724;11.284;2023-02-18T06:57:46;102857.66;;;11.69
67509;BMP280;54354;44.724;11.284;2023-02-18T07:00:12;102856.94;;;11.73
67509;BMP280;54354;44.724;11.284;2023-02-18T07:02:37;102861.19;;;11.77
67509;BMP280;54354;44.724;11.284;2023-02-18T07:05:04;102855.16;;;11.80
67509;BMP280;54354;44.724;11.284;2023-02-18T07:07:29;102867.72;;;11.83
67509;BMP280;54354;44.724;11.284;2023-02-18T07:09:55;102866.22;;;11.86
67509;BMP280;54354;44.724;11.284;2023-02-18T07:12:20;102866.63;;;11.88
67509;BMP280;54354;44.724;11.284;2023-02-18T07:14:46;102856.44;;;11.90
67509;BMP280;54354;44.724;11.284;2023-02-18T07:17:12;102844.66;;;11.91
67509;BMP280;54354;44.724;11.284;2023-02-18T07:19:38;102859.50;;;11.92
67509;BMP280;54354;44.724;11.284;2023-02-18T07:22:03;102853.47;;;11.95
67509;BMP280;54354;44.724;11.284;2023-02-18T07:24:29;102860.34;;;12.00
67509;BMP280;54354;44.724;11.284;2023-02-18T07:26:54;102864.94;;;12.03
67509;BMP280;54354;44.724;11.284;2023-02-18T07:29:20;102879.78;;;12.07
67509;BMP280;54354;44.724;11.284;2023-02-18T07:31:45;102875.28;;;12.11
67509;BMP280;54354;44.724;11.284;2023-02-18T07:34:11;102864.75;;;12.18
67509;BMP280;54354;44.724;11.284;2023-02-18T07:36:36;102862.53;;;12.24
67509;BMP280;54354;44.724;11.284;2023-02-18T07:39:02;102868.66;;;12.28
67509;BMP280;54354;44.724;11.284;2023-02-18T07:41:28;102868.72;;;12.32
67509;BMP280;54354;44.724;11.284;2023-02-18T07:43:53;102867.97;;;12.35
67509;BMP280;54354;44.724;11.284;2023-02-18T07:46:19;102863.41;;;12.35
67509;BMP280;54354;44.724;11.284;2023-02-18T07:48:44;102865.69;;;12.33
67509;BMP280;54354;44.724;11.284;2023-02-18T07:51:11;102872.50;;;12.31
67509;BMP280;54354;44.724;11.284;2023-02-18T07:53:37;102878.59;;;12.35
67509;BMP280;54354;44.724;11.284;2023-02-18T07:56:03;102876.75;;;12.42
67509;BMP280;54354;44.724;11.284;2023-02-18T07:58:31;102880.25;;;12.46
67509;BMP280;54354;44.724;11.284;2023-02-18T08:00:58;102877.66;;;12.54
67509;BMP280;54354;44.724;11.284;2023-02-18T08:03:28;102875.03;;;12.57
67509;BMP280;54354;44.724;11.284;2023-02-18T08:05:55;102883.88;;;12.65
67509;BMP280;54354;44.724;11.284;2023-02-18T08:08:24;102881.19;;;12.65
67509;BMP280;54354;44.724;11.284;2023-02-18T08:10:50;102883.91;;;12.72
67509;BMP280;54354;44.724;11.284;2023-02-18T08:13:16;102890.41;;;12.75
67509;BMP280;54354;44.724;11.284;2023-02-18T08:15:42;102895.38;;;12.76
67509;BMP280;54354;44.724;11.284;2023-02-18T08:18:14;102894.66;;;12.79
67509;BMP280;54354;44.724;11.284;2023-02-18T08:20:40;102907.66;;;12.91
67509;BMP280;54354;44.724;11.284;2023-02-18T08:23:05;102905.06;;;12.98
67509;BMP280;54354;44.724;11.284;2023-02-18T08:25:31;102904.00;;;13.07
67509;BMP280;54354;44.724;11.284;2023-02-18T08:27:58;102906.72;;;13.14
67509;BMP280;54354;44.724;11.284;2023-02-18T08:30:25;102901.06;;;13.19
67509;BMP280;54354;44.724;11.284;2023-02-18T08:32:50;102906.44;;;13.26
67509;BMP280;54354;44.724;11.284;2023-02-18T08:35:16;102908.75;;;13.31
67509;BMP280;54354;44.724;11.284;2023-02-18T08:37:42;102912.97;;;13.36
67509;BMP280;54354;44.724;11.284;2023-02-18T08:40:10;102900.13;;;13.41
67509;BMP280;54354;44.724;11.284;2023-02-18T08:42:36;102900.88;;;13.49
67509;BMP280;54354;44.724;11.284;2023-02-18T08:45:02;102896.78;;;13.55
67509;BMP280;54354;44.724;11.284;2023-02-18T08:47:28;102909.75;;;13.60
67509;BMP280;54354;44.724;11.284;2023-02-18T08:49:53;102909.41;;;13.69
67509;BMP280;54354;44.724;11.284;2023-02-18T08:52:19;102914.78;;;13.79
67509;BMP280;54354;44.724;11.284;2023-02-18T08:54:44;102913.31;;;13.89
67509;BMP280;54354;44.724;11.284;2023-02-18T08:57:10;102903.44;;;13.97
67509;BMP280;54354;44.724;11.284;2023-02-18T08:59:36;102906.50;;;14.06
67509;BMP280;54354;44.724;11.284;2023-02-18T09:02:01;102904.28;;;14.15
67509;BMP280;54354;44.724;11.284;2023-02-18T09:04:27;102903.56;;;14.22
67509;BMP280;54354;44.724;11.284;2023-02-18T09:06:52;102902.44;;;14.30
67509;BMP280;54354;44.724;11.284;2023-02-18T09:09:18;102897.13;;;14.37
67509;BMP280;54354;44.724;11.284;2023-02-18T09:11:44;102895.63;;;14.43
67509;BMP280;54354;44.724;11.284;2023-02-18T09:14:09;102892.19;;;14.50
67509;BMP280;54354;44.724;11.284;2023-02-18T09:16:35;102889.94;;;14.59
67509;BMP280;54354;44.724;11.284;2023-02-18T09:19:03;102883.47;;;14.67
67509;BMP280;54354;44.724;11.284;2023-02-18T09:21:28;102882.34;;;14.75
67509;BMP280;54354;44.724;11.284;2023-02-18T09:23:54;102892.63;;;14.88
67509;BMP280;54354;44.724;11.284;2023-02-18T09:26:20;102884.25;;;14.96
67509;BMP280;54354;44.724;11.284;2023-02-18T09:28:48;102892.25;;;15.07
67509;BMP280;54354;44.724;11.284;2023-02-18T09:31:16;102893.00;;;15.18
67509;BMP280;54354;44.724;11.284;2023-02-18T09:33:45;102892.59;;;15.27
67509;BMP280;54354;44.724;11.284;2023-02-18T09:36:11;102885.34;;;15.38
67509;BMP280;54354;44.724;11.284;2023-02-18T09:38:37;102882.25;;;15.47
67509;BMP280;54354;44.724;11.284;2023-02-18T09:41:08;102873.09;;;15.51
67509;BMP280;54354;44.724;11.284;2023-02-18T09:43:45;102862.00;;;15.60
67509;BMP280;54354;44.724;11.284;2023-02-18T09:46:38;102868.03;;;15.78
67509;BMP280;54354;44.724;11.284;2023-02-18T09:49:11;102872.59;;;15.78
67509;BMP280;54354;44.724;11.284;2023-02-18T09:51:38;102864.19;;;15.86
67509;BMP280;54354;44.724;11.284;2023-02-18T09:54:04;102865.28;;;15.92
67509;BMP280;54354;44.724;11.284;2023-02-18T09:56:31;102868.72;;;15.97
67509;BMP280;54354;44.724;11.284;2023-02-18T09:59:03;102862.94;;;16.05
67509;BMP280;54354;44.724;11.284;2023-02-18T10:01:34;102862.91;;;16.12
67509;BMP280;54354;44.724;11.284;2023-02-18T10:04:12;102862.13;;;16.15
67509;BMP280;54354;44.724;11.284;2023-02-18T10:06:39;102851.75;;;16.21
67509;BMP280;54354;44.724;11.284;2023-02-18T10:09:17;102849.06;;;16.25
67509;BMP280;54354;44.724;11.284;2023-02-18T10:11:47;102857.06;;;16.28
67509;BMP280;54354;44.724;11.284;2023-02-18T10:14:14;102859.28;;;16.40
67509;BMP280;54354;44.724;11.284;2023-02-18T10:16:40;102860.00;;;16.41
67509;BMP280;54354;44.724;11.284;2023-02-18T10:21:39;102863.03;;;16.50
67509;BMP280;54354;44.724;11.284;2023-02-18T10:26:55;102851.88;;;17.00
67509;BMP280;54354;44.724;11.284;2023-02-18T10:29:22;102839.88;;;16.74
67509;BMP280;54354;44.724;11.284;2023-02-18T10:34:47;102846.38;;;16.76
67509;BMP280;54354;44.724;11.284;2023-02-18T10:42:31;102830.66;;;16.82
67509;BMP280;54354;44.724;11.284;2023-02-18T10:45:27;102825.91;;;16.97
67509;BMP280;54354;44.724;11.284;2023-02-18T10:50:47;102824.34;;;16.99
67509;BMP280;54354;44.724;11.284;2023-02-18T10:53:17;102813.28;;;16.97
67509;BMP280;54354;44.724;11.284;2023-02-18T10:55:46;102810.91;;;17.03
67509;BMP280;54354;44.724;11.284;2023-02-18T10:58:35;102811.56;;;17.14
67509;BMP280;54354;44.724;11.284;2023-02-18T11:01:04;102806.91;;;17.18
67509;BMP280;54354;44.724;11.284;2023-02-18T11:04:04;102794.81;;;17.37
67509;BMP280;54354;44.724;11.284;2023-02-18T11:06:43;102798.72;;;17.33
67509;BMP280;54354;44.724;11.284;2023-02-18T11:09:28;102799.75;;;17.42
67509;BMP280;54354;44.724;11.284;2023-02-18T11:12:00;102790.56;;;17.40
67509;BMP280;54354;44.724;11.284;2023-02-18T11:14:37;102790.09;;;17.48
67509;BMP280;54354;44.724;11.284;2023-02-18T11:17:17;102777.44;;;17.52
67509;BMP280;54354;44.724;11.284;2023-02-18T11:19:57;102780.03;;;17.56
67509;BMP280;54354;44.724;11.284;2023-02-18T11:22:27;102765.09;;;17.55
67509;BMP280;54354;44.724;11.284;2023-02-18T11:24:59;102767.75;;;17.58
67509;BMP280;54354;44.724;11.284;2023-02-18T11:27:34;102768.09;;;17.60
67509;BMP280;54354;44.724;11.284;2023-02-18T11:30:06;102752.44;;;17.59
67509;BMP280;54354;44.724;11.284;2023-02-18T11:32:34;102745.03;;;17.67
67509;BMP280;54354;44.724;11.284;2023-02-18T11:35:02;102740.03;;;17.69
67509;BMP280;54354;44.724;11.284;2023-02-18T11:37:31;102735.88;;;17.68
67509;BMP280;54354;44.724;11.284;2023-02-18T11:39:57;102734.22;;;17.74
67509;BMP280;54354;44.724;11.284;2023-02-18T11:42:24;102728.44;;;17.75
67509;BMP280;54354;44.724;11.284;2023-02-18T11:50:21;102726.22;;;17.94
67509;BMP280;54354;44.724;11.284;2023-02-18T11:52:49;102719.09;;;17.87
67509;BMP280;54354;44.724;11.284;2023-02-18T11:55:25;102720.25;;;17.86
67509;BMP280;54354;44.724;11.284;2023-02-18T11:57:58;102716.75;;;17.89
67509;BMP280;54354;44.724;11.284;2023-02-18T12:00:37;102708.94;;;17.98
67509;BMP280;54354;44.724;11.284;2023-02-18T12:03:12;102711.91;;;18.04
67509;BMP280;54354;44.724;11.284;2023-02-18T12:05:39;102712.19;;;18.09
67509;BMP280;54354;44.724;11.284;2023-02-18T12:08:12;102704.16;;;18.09
67509;BMP280;54354;44.724;11.284;2023-02-18T12:10:50;102697.91;;;18.16
67509;BMP280;54354;44.724;11.284;2023-02-18T12:13:25;102695.22;;;18.16
67509;BMP280;54354;44.724;11.284;2023-02-18T12:16:09;102690.53;;;18.20
67509;BMP280;54354;44.724;11.284;2023-02-18T12:19:08;102690.53;;;18.20
67509;BMP280;54354;44.724;11.284;2023-02-18T12:29:50;102673.16;;;18.28
67509;BMP280;54354;44.724;11.284;2023-02-18T12:32:32;102668.91;;;18.31
67509;BMP280;54354;44.724;11.284;2023-02-18T12:43:32;102660.97;;;18.43
67509;BMP280;54354;44.724;11.284;2023-02-18T12:51:25;102646.81;;;18.63
67509;BMP280;54354;44.724;11.284;2023-02-18T12:59:30;102642.09;;;18.83
67509;BMP280;54354;44.724;11.284;2023-02-18T13:11:02;102620.41;;;18.94
67509;BMP280;54354;44.724;11.284;2023-02-18T13:13:34;102622.25;;;18.97
67509;BMP280;54354;44.724;11.284;2023-02-18T13:16:10;102618.66;;;19.04
67509;BMP280;54354;44.724;11.284;2023-02-18T13:18:40;102617.81;;;19.07
67509;BMP280;54354;44.724;11.284;2023-02-18T13:21:10;102607.75;;;19.11
67509;BMP280;54354;44.724;11.284;2023-02-18T13:23:39;102608.84;;;19.13
67509;BMP280;54354;44.724;11.284;2023-02-18T13:26:10;102609.91;;;19.16
67509;BMP280;54354;44.724;11.284;2023-02-18T13:34:09;102594.31;;;19.27
67509;BMP280;54354;44.724;11.284;2023-02-18T13:36:45;102598.81;;;19.30
67509;BMP280;54354;44.724;11.284;2023-02-18T13:39:17;102593.88;;;19.28
67509;BMP280;54354;44.724;11.284;2023-02-18T13:41:44;102591.19;;;19.74
67509;BMP280;54354;44.724;11.284;2023-02-18T13:46:53;102592.34;;;19.44
67509;BMP280;54354;44.724;11.284;2023-02-18T13:49:22;102579.25;;;19.46
67509;BMP280;54354;44.724;11.284;2023-02-18T13:51:51;102575.38;;;19.47
67509;BMP280;54354;44.724;11.284;2023-02-18T13:54:22;102568.41;;;19.49
67509;BMP280;54354;44.724;11.284;2023-02-18T13:56:53;102561.44;;;19.52
67509;BMP280;54354;44.724;11.284;2023-02-18T14:26:07;102521.25;;;20.03
67509;BMP280;54354;44.724;11.284;2023-02-18T14:33:40;102511.53;;;20.05
67509;BMP280;54354;44.724;11.284;2023-02-18T14:39:13;102511.34;;;20.12
67509;BMP280;54354;44.724;11.284;2023-02-18T14:42:00;102499.84;;;20.12
67509;BMP280;54354;44.724;11.284;2023-02-18T14:49:57;102502.19;;;20.10
67509;BMP280;54354;44.724;11.284;2023-02-18T14:52:33;102508.09;;;20.18
67509;BMP280;54354;44.724;11.284;2023-02-18T14:55:00;102492.50;;;20.25
67509;BMP280;54354;44.724;11.284;2023-02-18T14:57:40;102493.16;;;20.29
67509;BMP280;54354;44.724;11.284;2023-02-18T15:00:15;102495.91;;;20.26
67509;BMP280;54354;44.724;11.284;2023-02-18T15:02:41;102498.59;;;20.26
67509;BMP280;54354;44.724;11.284;2023-02-18T15:05:21;102494.09;;;20.23
67509;BMP280;54354;44.724;11.284;2023-02-18T15:08:14;102493.88;;;20.30
67509;BMP280;54354;44.724;11.284;2023-02-18T15:10:43;102492.28;;;20.20
67509;BMP280;54354;44.724;11.284;2023-02-18T15:15:44;102489.16;;;20.21
67509;BMP280;54354;44.724;11.284;2023-02-18T15:20:47;102484.75;;;20.27
67509;BMP280;54354;44.724;11.284;2023-02-18T15:23:15;102476.78;;;20.24
67509;BMP280;54354;44.724;11.284;2023-02-18T15:25:47;102481.00;;;20.25
67509;BMP280;54354;44.724;11.284;2023-02-18T15:28:28;102489.38;;;20.27
67509;BMP280;54354;44.724;11.284;2023-02-18T15:31:02;102481.31;;;20.27
67509;BMP280;54354;44.724;11.284;2023-02-18T15:33:28;102488.19;;;20.28
67509;BMP280;54354;44.724;11.284;2023-02-18T15:36:05;102481.31;;;20.27
67509;BMP280;54354;44.724;11.284;2023-02-18T15:38:31;102475.16;;;20.26
67509;BMP280;54354;44.724;11.284;2023-02-18T15:40:58;102475.69;;;20.21
67509;BMP280;54354;44.724;11.284;2023-02-18T15:43:24;102475.69;;;20.21
67509;BMP280;54354;44.724;11.284;2023-02-18T15:45:55;102471.63;;;20.64
67509;BMP280;54354;44.724;11.284;2023-02-18T15:50:55;102478.06;;;20.19
67509;BMP280;54354;44.724;11.284;2023-02-18T15:53:22;102471.72;;;20.13
67509;BMP280;54354;44.724;11.284;2023-02-18T15:55:51;102479.59;;;20.07
67509;BMP280;54354;44.724;11.284;2023-02-18T15:58:27;102465.50;;;20.03
67509;BMP280;54354;44.724;11.284;2023-02-18T16:01:02;102462.47;;;20.01
67509;BMP280;54354;44.724;11.284;2023-02-18T16:03:43;102468.28;;;20.00
67509;BMP280;54354;44.724;11.284;2023-02-18T16:06:22;102458.50;;;19.93
67509;BMP280;54354;44.724;11.284;2023-02-18T16:09:14;102456.88;;;19.96
67509;BMP280;54354;44.724;11.284;2023-02-18T16:11:49;102462.59;;;19.85
67509;BMP280;54354;44.724;11.284;2023-02-18T16:14:43;102461.41;;;19.86
67509;BMP280;54354;44.724;11.284;2023-02-18T16:17:13;102467.84;;;19.76
67509;BMP280;54354;44.724;11.284;2023-02-18T16:19:47;102460.88;;;20.17
67509;BMP280;54354;44.724;11.284;2023-02-18T16:22:36;102462.88;;;19.87
67509;BMP280;54354;44.724;11.284;2023-02-18T16:25:16;102468.72;;;19.73
67509;BMP280;54354;44.724;11.284;2023-02-18T16:30:24;102457.50;;;19.62
67509;BMP280;54354;44.724;11.284;2023-02-18T16:32:50;102454.50;;;19.60
67509;BMP280;54354;44.724;11.284;2023-02-18T16:35:16;102457.69;;;19.54
67509;BMP280;54354;44.724;11.284;2023-02-18T16:37:42;102459.31;;;19.52